createdAt,value
2022-09-02T00:01:46.061Z,67.15
2022-09-02T00:04:16.920Z,67.06
2022-09-02T00:06:47.271Z,67.33
2022-09-02T00:09:21.024Z,67.56
2022-09-02T00:11:51.192Z,67.66
2022-09-02T00:14:23.224Z,67.68
2022-09-02T00:16:53.283Z,67.91
2022-09-02T00:19:24.136Z,67.95
2022-09-02T00:21:53.951Z,67.64
2022-09-02T00:24:24.085Z,67.66
2022-09-02T00:26:56.449Z,67.85
2022-09-02T00:29:26.845Z,68.31
2022-09-02T00:31:57.005Z,68.16
2022-09-02T00:34:26.054Z,68.15
2022-09-02T00:36:54.609Z,67.80
2022-09-02T00:39:23.059Z,68.06
2022-09-02T00:41:52.587Z,67.96
2022-09-02T00:44:22.855Z,68.27
2022-09-02T00:46:51.381Z,68.38
2022-09-02T00:49:25.187Z,68.39
2022-09-02T00:51:58.499Z,68.63
2022-09-02T00:54:30.968Z,68.39
2022-09-02T00:57:02.017Z,68.40
2022-09-02T00:59:42.363Z,67.94
2022-09-02T01:02:11.791Z,67.94
2022-09-02T01:04:43.154Z,68.37
2022-09-02T01:07:11.607Z,68.21
2022-09-02T01:09:41.022Z,68.46
2022-09-02T01:12:12.729Z,68.36
2022-09-02T01:14:41.433Z,67.97
2022-09-02T01:17:10.127Z,68.01
2022-09-02T01:19:45.957Z,67.95
2022-09-02T01:22:20.576Z,67.48
2022-09-02T01:24:49.503Z,67.38
2022-09-02T01:27:19.828Z,67.64
2022-09-02T01:29:53.187Z,67.94
2022-09-02T01:32:22.341Z,67.79
2022-09-02T01:34:51.060Z,68.04
2022-09-02T01:37:21.696Z,68.01
2022-09-02T01:39:52.313Z,68.18
2022-09-02T01:42:21.562Z,67.94
2022-09-02T01:44:50.084Z,67.95
2022-09-02T01:47:22.628Z,68.07
2022-09-02T01:49:52.373Z,68.17
2022-09-02T01:52:24.824Z,67.97
2022-09-02T01:54:53.455Z,67.78
2022-09-02T01:57:24.613Z,67.88
2022-09-02T01:59:53.143Z,68.19
2022-09-02T02:02:22.367Z,67.87
2022-09-02T02:04:51.796Z,68.38
2022-09-02T02:07:23.836Z,68.58
2022-09-02T02:09:52.879Z,68.80
2022-09-02T02:12:21.719Z,69.11
2022-09-02T02:14:50.273Z,69.35
2022-09-02T02:17:18.691Z,69.23
2022-09-02T02:19:47.200Z,69.02
2022-09-02T02:22:15.784Z,68.43
2022-09-02T02:24:48.144Z,68.09
2022-09-02T02:27:16.596Z,68.21
2022-09-02T02:29:45.108Z,68.22
2022-09-02T02:32:13.587Z,68.55
2022-09-02T02:34:42.674Z,68.25
2022-09-02T02:37:12.330Z,68.50
2022-09-02T02:39:41.739Z,68.31
2022-09-02T02:42:12.107Z,68.33
2022-09-02T02:44:40.875Z,68.27
2022-09-02T02:47:10.039Z,68.40
2022-09-02T02:49:39.312Z,68.02
2022-09-02T02:52:08.535Z,68.06
2022-09-02T02:54:37.117Z,67.90
2022-09-02T02:57:06.791Z,68.26
2022-09-02T02:59:37.440Z,67.88
2022-09-02T03:02:07.647Z,68.26
2022-09-02T03:04:36.297Z,68.85
2022-09-02T03:07:07.298Z,68.99
2022-09-02T03:09:36.139Z,69.42
2022-09-02T03:12:05.097Z,69.30
2022-09-02T03:14:33.528Z,69.29
2022-09-02T03:17:04.781Z,69.26
2022-09-02T03:19:33.247Z,69.03
2022-09-02T03:22:01.831Z,69.06
2022-09-02T03:24:31.079Z,68.87
2022-09-02T03:26:59.623Z,68.48
2022-09-02T03:29:28.188Z,68.37
2022-09-02T03:31:57.223Z,68.33
2022-09-02T03:34:28.049Z,68.49
2022-09-02T03:36:57.616Z,68.75
2022-09-02T03:39:26.153Z,69.30
2022-09-02T03:41:54.677Z,69.58
2022-09-02T03:44:23.097Z,69.69
2022-09-02T03:46:51.594Z,69.59
2022-09-02T03:49:20.240Z,69.27
2022-09-02T03:51:52.727Z,69.21
2022-09-02T03:54:21.512Z,68.96
2022-09-02T03:56:50.115Z,69.02
2022-09-02T03:59:19.172Z,69.06
2022-09-02T04:01:47.776Z,68.93
2022-09-02T04:04:19.742Z,68.83
2022-09-02T04:06:52.431Z,68.84
2022-09-02T04:09:20.887Z,69.17
2022-09-02T04:11:49.356Z,69.54
2022-09-02T04:14:17.935Z,69.59
2022-09-02T04:16:46.457Z,69.46
2022-09-02T04:19:14.961Z,69.54
2022-09-02T04:21:44.023Z,69.63
2022-09-02T04:24:13.575Z,69.65
2022-09-02T04:26:44.988Z,69.72
2022-09-02T04:29:14.212Z,69.91
2022-09-02T04:31:48.724Z,69.93
2022-09-02T04:34:17.319Z,69.86
2022-09-02T04:36:45.798Z,70.18
2022-09-02T04:39:14.340Z,70.09
2022-09-02T04:41:44.128Z,70.05
2022-09-02T04:44:12.571Z,69.86
2022-09-02T04:46:41.403Z,69.43
2022-09-02T04:49:09.948Z,69.32
2022-09-02T04:51:38.488Z,69.47
2022-09-02T04:54:07.953Z,69.64
2022-09-02T04:56:38.078Z,69.30
2022-09-02T04:59:08.195Z,69.37
2022-09-02T05:01:37.432Z,69.37
2022-09-02T05:04:09.694Z,69.61
2022-09-02T05:06:44.049Z,69.50
2022-09-02T05:09:13.384Z,69.69
2022-09-02T05:11:41.892Z,69.87
2022-09-02T05:14:13.044Z,70.05
2022-09-02T05:16:42.851Z,69.75
2022-09-02T05:19:12.615Z,69.84
2022-09-02T05:21:43.427Z,69.92
2022-09-02T05:24:12.079Z,69.70
2022-09-02T05:26:42.473Z,69.51
2022-09-02T05:29:13.504Z,69.37
2022-09-02T05:31:42.547Z,69.20
2022-09-02T05:34:11.679Z,68.93
2022-09-02T05:36:40.224Z,69.17
2022-09-02T05:39:09.341Z,69.43
2022-09-02T05:41:38.312Z,69.66
2022-09-02T05:44:07.989Z,69.54
2022-09-02T05:46:37.892Z,69.47
2022-09-02T05:49:07.519Z,69.78
2022-09-02T05:51:42.179Z,70.22
2022-09-02T05:54:16.172Z,70.44
2022-09-02T05:56:46.839Z,70.64
2022-09-02T05:59:16.443Z,70.64
2022-09-02T06:01:46.504Z,70.26
2022-09-02T06:04:15.191Z,69.95
2022-09-02T06:06:43.840Z,70.13
2022-09-02T06:09:14.781Z,69.92
2022-09-02T06:11:49.266Z,69.92
2022-09-02T06:14:18.879Z,69.94
2022-09-02T06:16:50.432Z,70.32
2022-09-02T06:19:20.394Z,70.23
2022-09-02T06:21:49.591Z,70.43
2022-09-02T06:24:18.329Z,70.36
2022-09-02T06:26:47.997Z,70.94
2022-09-02T06:29:16.906Z,70.72
2022-09-02T06:31:47.536Z,70.84
2022-09-02T06:34:20.211Z,70.82
2022-09-02T06:36:50.732Z,71.03
2022-09-02T06:39:22.684Z,71.08
2022-09-02T06:41:51.507Z,71.01
2022-09-02T06:44:22.612Z,71.28
2022-09-02T06:46:55.746Z,71.28
2022-09-02T06:49:27.351Z,71.31
2022-09-02T06:51:57.118Z,71.14
2022-09-02T06:54:26.103Z,71.21
2022-09-02T06:56:55.019Z,71.63
2022-09-02T06:59:23.652Z,71.86
2022-09-02T07:01:52.753Z,72.09
2022-09-02T07:04:38.871Z,71.86
2022-09-02T07:07:11.973Z,71.99
2022-09-02T07:09:40.851Z,71.74
2022-09-02T07:12:09.567Z,71.70
2022-09-02T07:14:39.334Z,71.72
2022-09-02T07:17:09.390Z,71.23
2022-09-02T07:19:38.401Z,71.53
2022-09-02T07:22:08.577Z,71.68
2022-09-02T07:24:37.339Z,71.63
2022-09-02T07:27:06.807Z,71.58
2022-09-02T07:29:35.988Z,71.87
2022-09-02T07:32:05.764Z,71.69
2022-09-02T07:34:34.447Z,71.98
2022-09-02T07:37:07.312Z,71.91
2022-09-02T07:39:40.091Z,72.16
2022-09-02T07:42:11.269Z,72.38
2022-09-02T07:44:40.259Z,72.76
2022-09-02T07:47:09.037Z,72.58
2022-09-02T07:52:26.239Z,73.24
2022-09-02T07:54:56.326Z,73.61
2022-09-02T07:57:24.827Z,73.53
2022-09-02T07:59:53.279Z,73.22
2022-09-02T08:02:21.889Z,73.42
2022-09-02T08:04:51.208Z,73.09
2022-09-02T08:07:24.253Z,73.05
2022-09-02T08:09:53.016Z,73.10
2022-09-02T08:12:23.129Z,73.05
2022-09-02T08:14:52.173Z,73.20
2022-09-02T08:17:20.678Z,73.03
2022-09-02T08:19:49.111Z,72.80
2022-09-02T08:22:17.581Z,72.90
2022-09-02T08:24:46.160Z,73.14
2022-09-02T08:27:14.672Z,72.99
2022-09-02T08:29:44.509Z,73.28
2022-09-02T08:32:13.608Z,73.27
2022-09-02T08:34:45.274Z,73.43
2022-09-02T08:37:13.780Z,73.52
2022-09-02T08:39:42.192Z,73.43
2022-09-02T08:42:20.473Z,73.41
2022-09-02T08:44:54.500Z,73.40
2022-09-02T08:47:29.989Z,73.19
2022-09-02T08:50:02.455Z,73.08
2022-09-02T08:52:37.564Z,73.24
2022-09-02T08:55:08.767Z,73.07
2022-09-02T08:57:37.385Z,72.94
2022-09-02T09:00:15.539Z,72.74
2022-09-02T09:02:56.967Z,72.76
2022-09-02T09:05:34.488Z,72.68
2022-09-02T09:08:14.962Z,72.10
2022-09-02T09:10:58.066Z,72.03
2022-09-02T09:13:53.644Z,71.58
2022-09-02T09:38:53.672Z,69.39
2022-09-02T09:41:25.076Z,69.43
2022-09-02T09:43:53.659Z,69.14
2022-09-02T09:46:27.721Z,69.18
2022-09-02T09:48:56.548Z,69.06
2022-09-02T09:51:25.868Z,68.72
2022-09-02T09:54:16.480Z,67.30
2022-09-02T09:56:45.598Z,67.67
2022-09-02T09:59:41.411Z,67.19
2022-09-02T10:02:21.054Z,67.44
2022-09-02T10:04:50.174Z,67.14
2022-09-02T10:07:36.984Z,66.43
2022-09-02T10:10:20.609Z,65.94
2022-09-02T10:12:50.859Z,66.01
2022-09-02T10:15:34.779Z,65.69
2022-09-02T10:18:16.989Z,65.76
2022-09-02T10:23:53.953Z,64.80
2022-09-02T10:26:38.436Z,64.28
2022-09-02T10:29:37.847Z,63.99
2022-09-02T10:32:40.931Z,63.51
2022-09-02T10:35:13.974Z,63.63
2022-09-02T10:37:53.656Z,63.13
2022-09-02T10:40:28.516Z,62.99
2022-09-02T10:43:06.095Z,62.53
2022-09-02T10:45:38.199Z,62.10
2022-09-02T10:48:31.181Z,61.01
2022-09-02T10:51:06.636Z,61.12
2022-09-02T10:53:44.604Z,60.64
2022-09-02T10:56:18.029Z,60.33
2022-09-02T10:58:54.433Z,60.15
2022-09-02T11:01:26.461Z,59.82
2022-09-02T11:04:04.709Z,59.27
2022-09-02T11:07:01.291Z,58.96
2022-09-02T11:09:34.212Z,58.73
2022-09-02T11:12:09.431Z,59.02
2022-09-02T11:14:53.643Z,58.87
2022-09-02T11:17:28.983Z,58.92
2022-09-02T11:20:02.705Z,58.93
2022-09-02T11:22:40.413Z,58.37
2022-09-02T11:25:14.111Z,58.17
2022-09-02T11:27:48.015Z,57.74
2022-09-02T11:30:21.046Z,57.28
2022-09-02T11:32:54.740Z,57.01
2022-09-02T11:35:27.491Z,56.80
2022-09-02T11:38:00.256Z,56.52
2022-09-02T11:40:38.766Z,56.41
2022-09-02T11:43:32.041Z,55.97
2022-09-02T11:46:31.220Z,55.72
2022-09-02T11:49:22.004Z,55.77
2022-09-02T11:52:19.508Z,54.96
2022-09-02T11:54:54.255Z,55.42
2022-09-02T11:57:25.839Z,54.95
2022-09-02T12:00:08.171Z,54.05
2022-09-02T12:02:43.288Z,54.59
2022-09-02T12:05:46.857Z,53.42
2022-09-02T12:08:55.995Z,53.44
2022-09-02T12:11:46.212Z,53.59
2022-09-02T12:15:07.495Z,52.79
2022-09-02T12:18:08.768Z,53.13
2022-09-02T12:21:19.854Z,51.87
2022-09-02T12:24:26.387Z,51.39
2022-09-02T12:27:11.247Z,50.70
2022-09-02T12:29:39.915Z,51.09
2022-09-02T12:32:10.143Z,50.76
2022-09-02T12:34:56.583Z,49.09
2022-09-02T12:37:54.224Z,49.38
2022-09-02T12:40:35.156Z,49.93
2022-09-02T12:43:17.558Z,49.40
2022-09-02T12:45:48.007Z,49.37
2022-09-02T12:48:38.239Z,48.97
2022-09-02T12:51:08.865Z,49.11
2022-09-02T12:53:41.378Z,48.33
2022-09-02T12:56:23.083Z,48.28
2022-09-02T12:58:57.791Z,48.07
2022-09-02T13:01:42.465Z,47.61
2022-09-02T13:04:33.511Z,47.27
2022-09-02T13:07:32.803Z,47.21
2022-09-02T13:10:24.704Z,46.76
2022-09-02T13:13:18.848Z,46.49
2022-09-02T13:16:04.593Z,46.73
2022-09-02T13:19:01.676Z,46.10
2022-09-02T13:21:56.476Z,46.54
2022-09-02T13:24:58.637Z,46.41
2022-09-02T13:28:03.299Z,45.99
2022-09-02T13:30:58.804Z,45.86
2022-09-02T13:33:28.151Z,45.67
2022-09-02T13:35:59.240Z,45.71
2022-09-02T13:38:29.456Z,45.25
2022-09-02T13:40:58.368Z,44.99
2022-09-02T14:53:14.941Z,43.05
2022-09-02T14:55:47.708Z,42.68
2022-09-02T14:58:17.292Z,42.84
2022-09-02T15:00:48.035Z,42.87
2022-09-02T15:03:17.420Z,42.87
2022-09-02T15:05:48.011Z,42.56
2022-09-02T15:08:17.432Z,42.67
2022-09-02T15:10:46.652Z,42.67
2022-09-02T15:13:23.484Z,42.23
2022-09-02T15:15:52.848Z,42.15
2022-09-02T15:18:21.541Z,41.87
2022-09-02T15:20:51.956Z,41.68
2022-09-02T15:23:20.870Z,41.57
2022-09-02T15:25:49.380Z,41.63
2022-09-02T15:28:17.863Z,41.84
2022-09-02T15:30:48.434Z,41.69
2022-09-02T15:33:17.763Z,41.41
2022-09-02T15:35:47.561Z,41.61
2022-09-02T15:38:17.799Z,41.60
2022-09-02T15:40:46.716Z,41.40
2022-09-02T15:43:16.251Z,41.55
2022-09-02T15:45:47.116Z,41.59
2022-09-02T15:48:15.784Z,41.72
2022-09-02T15:50:46.441Z,41.36
2022-09-02T15:53:17.467Z,41.63
2022-09-02T15:55:45.898Z,41.84
2022-09-02T15:58:15.193Z,41.56
2022-09-02T16:00:43.926Z,41.43
2022-09-02T16:03:12.614Z,41.43
2022-09-02T16:05:43.138Z,41.56
2022-09-02T16:08:11.721Z,41.52
2022-09-02T16:10:41.492Z,41.34
2022-09-02T16:13:09.956Z,41.82
2022-09-02T16:15:38.397Z,41.86
2022-09-02T16:18:07.023Z,41.89
2022-09-02T16:20:35.580Z,41.56
2022-09-02T16:23:04.308Z,41.88
2022-09-02T16:25:32.836Z,41.56
2022-09-02T16:28:03.716Z,41.72
2022-09-02T16:30:32.240Z,41.90
2022-09-02T16:33:00.767Z,42.31
2022-09-02T16:35:29.856Z,42.19
2022-09-02T16:37:58.292Z,42.26
2022-09-02T16:40:26.728Z,42.65
2022-09-02T16:42:55.294Z,42.29
2022-09-02T16:45:25.998Z,42.45
2022-09-02T16:47:54.711Z,42.84
2022-09-02T16:50:23.296Z,42.80
2022-09-02T16:52:51.717Z,43.21
2022-09-02T16:55:20.176Z,43.10
2022-09-02T16:57:49.320Z,43.35
2022-09-02T17:00:18.420Z,43.45
2022-09-02T17:02:50.745Z,43.46
2022-09-02T17:05:19.206Z,43.76
2022-09-02T17:07:48.124Z,43.64
2022-09-02T17:10:16.801Z,43.88
2022-09-02T17:12:45.405Z,44.06
2022-09-02T17:15:14.525Z,44.04
2022-09-02T17:17:43.366Z,44.07
2022-09-02T17:20:13.819Z,44.19
2022-09-02T17:22:42.745Z,44.37
2022-09-02T17:25:12.135Z,44.64
2022-09-02T17:27:42.086Z,44.67
2022-09-02T17:30:12.360Z,44.88
2022-09-02T17:32:41.784Z,44.92
2022-09-02T17:35:12.484Z,45.01
2022-09-02T17:37:42.582Z,45.16
2022-09-02T17:40:33.091Z,45.30
2022-09-02T17:43:00.636Z,45.42
2022-09-02T17:45:29.063Z,45.50
2022-09-02T17:48:19.093Z,45.68
2022-09-02T17:50:50.426Z,45.95
2022-09-02T17:53:20.237Z,46.16
2022-09-02T17:55:51.312Z,46.49
2022-09-02T17:58:22.567Z,46.55
2022-09-02T18:00:58.345Z,46.80
2022-09-02T18:03:40.979Z,47.13
2022-09-02T18:06:16.434Z,47.32
2022-09-02T18:08:56.280Z,47.95
2022-09-02T18:11:25.628Z,47.90
2022-09-02T18:14:08.196Z,47.92
2022-09-02T18:16:51.344Z,48.16
2022-09-02T18:19:38.072Z,48.61
2022-09-02T18:22:19.637Z,48.39
2022-09-02T18:25:08.433Z,48.73
2022-09-02T18:27:52.357Z,48.81
2022-09-02T18:30:23.609Z,49.04
2022-09-02T18:33:17.893Z,49.50
2022-09-02T18:35:55.692Z,49.47
2022-09-02T18:38:32.000Z,49.37
2022-09-02T18:41:26.132Z,49.90
2022-09-02T18:44:07.729Z,49.93
2022-09-02T18:46:46.985Z,50.23
2022-09-02T18:49:16.565Z,50.46
2022-09-02T18:51:46.991Z,50.49
2022-09-02T18:54:19.932Z,50.79
2022-09-02T18:56:58.124Z,51.22
2022-09-02T18:59:35.384Z,51.47
2022-09-02T19:02:15.338Z,51.40
2022-09-02T19:04:44.064Z,51.56
2022-09-02T19:07:31.543Z,52.06
2022-09-02T19:10:02.487Z,52.54
2022-09-02T19:12:36.198Z,53.21
2022-09-02T19:15:08.780Z,53.76
2022-09-02T19:17:37.676Z,54.25
2022-09-02T19:20:07.469Z,54.28
2022-09-02T19:22:38.260Z,54.15
2022-09-02T19:25:11.461Z,54.08
2022-09-02T19:27:44.849Z,54.04
2022-09-02T19:30:15.778Z,54.39
2022-09-02T19:32:47.963Z,55.01
2022-09-02T19:35:19.465Z,55.11
2022-09-02T19:37:51.699Z,55.17
2022-09-02T19:40:23.067Z,54.97
2022-09-02T19:42:54.157Z,55.40
2022-09-02T19:45:23.046Z,55.69
2022-09-02T19:48:08.892Z,55.72
2022-09-02T19:50:40.872Z,55.67
2022-09-02T19:53:15.953Z,55.59
2022-09-02T19:55:44.961Z,55.44
2022-09-02T19:58:14.895Z,55.56
2022-09-02T20:00:43.935Z,55.78
2022-09-02T20:03:13.146Z,56.21
2022-09-02T20:05:42.350Z,55.88
2022-09-02T20:08:11.017Z,55.99
2022-09-02T20:10:40.743Z,55.90
2022-09-02T20:13:13.632Z,55.66
2022-09-02T20:15:43.495Z,55.77
2022-09-02T20:18:14.089Z,56.25
2022-09-02T20:20:44.106Z,57.37
2022-09-02T20:23:17.271Z,58.14
2022-09-02T20:26:03.754Z,59.01
2022-09-02T20:28:45.662Z,59.36
2022-09-02T20:31:26.357Z,59.84
2022-09-02T20:34:05.463Z,59.98
2022-09-02T20:36:37.407Z,60.21
2022-09-02T20:39:18.456Z,60.27
2022-09-02T20:41:56.275Z,59.99
2022-09-02T20:44:42.500Z,59.98
2022-09-02T20:47:30.068Z,59.62
2022-09-02T20:50:10.073Z,59.37
2022-09-02T20:52:46.888Z,59.72
2022-09-02T20:55:22.773Z,60.14
2022-09-02T20:58:19.235Z,60.99
2022-09-02T21:01:06.706Z,61.81
2022-09-02T21:03:46.404Z,61.58
2022-09-02T21:06:15.848Z,61.58
2022-09-02T21:08:55.296Z,61.79
2022-09-02T21:11:24.411Z,61.43
2022-09-02T21:13:58.893Z,60.98
2022-09-02T21:16:35.846Z,61.13
2022-09-02T21:19:12.003Z,61.50
2022-09-02T21:21:46.691Z,61.54
2022-09-02T21:24:21.451Z,61.59
2022-09-02T21:26:56.586Z,61.70
2022-09-02T21:29:32.829Z,61.77
2022-09-02T21:32:07.337Z,61.78
2022-09-02T21:34:42.064Z,62.03
2022-09-02T21:37:11.227Z,62.05
2022-09-02T21:39:45.141Z,62.00
2022-09-02T21:42:27.432Z,62.37
2022-09-02T21:45:06.807Z,62.40
2022-09-02T21:47:42.096Z,62.61
2022-09-02T21:50:21.920Z,62.69
2022-09-02T21:53:04.942Z,62.97
2022-09-02T21:55:46.150Z,62.92
2022-09-02T21:58:35.361Z,63.01
2022-09-02T22:01:09.075Z,62.76
2022-09-02T22:03:43.329Z,62.83
2022-09-02T22:06:23.560Z,63.31
2022-09-02T22:08:58.524Z,63.19
2022-09-02T22:11:32.627Z,63.17
2022-09-02T22:14:09.025Z,63.31
2022-09-02T22:16:45.780Z,63.33
2022-09-02T22:19:14.756Z,63.10
2022-09-02T22:21:49.122Z,63.12
2022-09-02T22:24:18.950Z,63.61
2022-09-02T22:26:52.804Z,64.15
2022-09-02T22:29:31.860Z,64.24
2022-09-02T22:32:04.324Z,64.28
2022-09-02T22:34:39.132Z,64.66
2022-09-02T22:37:12.073Z,64.66
2022-09-02T22:39:48.182Z,64.79
2022-09-02T22:42:22.460Z,65.11
2022-09-02T22:45:14.113Z,64.86
2022-09-02T22:48:06.905Z,64.56
2022-09-02T22:50:59.003Z,64.67
2022-09-02T22:53:30.811Z,64.59
2022-09-02T22:56:02.919Z,64.71
2022-09-02T22:58:55.427Z,65.14
2022-09-02T23:01:34.315Z,64.28
2022-09-02T23:04:19.542Z,64.34
2022-09-02T23:06:48.743Z,64.44
2022-09-02T23:09:18.607Z,65.11
2022-09-02T23:11:55.108Z,65.08
2022-09-02T23:14:32.432Z,65.53
2022-09-02T23:17:35.365Z,65.99
2022-09-02T23:20:14.774Z,65.20
2022-09-02T23:23:07.342Z,65.46
2022-09-02T23:25:53.393Z,65.58
2022-09-02T23:28:32.660Z,65.15
2022-09-02T23:31:09.375Z,65.09
2022-09-02T23:33:50.951Z,65.48
2022-09-02T23:36:32.984Z,66.09
2022-09-02T23:39:16.175Z,66.17
2022-09-02T23:41:49.160Z,66.01
2022-09-02T23:44:17.712Z,66.08
2022-09-02T23:46:58.319Z,65.92
2022-09-02T23:49:38.229Z,65.31
2022-09-02T23:52:11.325Z,65.32
2022-09-02T23:54:52.745Z,65.95
2022-09-02T23:57:35.661Z,66.08
